createdAt,value
2022-11-24T00:01:17.358Z,38.50
2022-11-24T00:03:45.342Z,37.60
2022-11-24T00:06:14.898Z,40.50
2022-11-24T00:08:44.331Z,38.90
2022-11-24T00:11:20.715Z,37.80
2022-11-24T00:13:47.862Z,39.60
2022-11-24T00:16:21.000Z,40.30
2022-11-24T00:18:51.037Z,38.60
2022-11-24T00:21:19.231Z,38.10
2022-11-24T00:23:46.744Z,38.10
2022-11-24T00:26:23.031Z,36.60
2022-11-24T00:28:51.756Z,37.40
2022-11-24T00:31:21.751Z,36.70
2022-11-24T00:33:52.246Z,38.00
2022-11-24T00:36:20.350Z,38.00
2022-11-24T00:38:47.370Z,38.70
2022-11-24T00:41:14.135Z,37.50
2022-11-24T00:43:40.669Z,36.60
2022-11-24T00:46:07.327Z,38.50
2022-11-24T00:48:34.062Z,36.80
2022-11-24T00:51:06.316Z,37.30
2022-11-24T00:53:33.481Z,36.30
2022-11-24T00:56:00.423Z,37.50
2022-11-24T00:58:27.170Z,37.10
2022-11-24T01:00:53.974Z,37.00
2022-11-24T01:03:22.101Z,38.00
2022-11-24T01:05:48.736Z,37.60
2022-11-24T01:08:15.325Z,41.40
2022-11-24T01:10:41.844Z,39.40
2022-11-24T01:13:08.712Z,40.50
2022-11-24T01:15:36.111Z,37.70
2022-11-24T01:18:03.867Z,38.50
2022-11-24T01:20:31.384Z,38.10
2022-11-24T01:22:58.001Z,39.10
2022-11-24T01:25:24.741Z,37.90
2022-11-24T01:27:51.327Z,35.30
2022-11-24T01:30:18.026Z,37.70
2022-11-24T01:32:44.467Z,39.70
2022-11-24T01:35:10.915Z,37.10
2022-11-24T01:37:37.387Z,39.20
2022-11-24T01:40:05.171Z,39.20
2022-11-24T01:42:50.901Z,39.60
2022-11-24T01:45:27.827Z,40.10
2022-11-24T01:47:54.833Z,39.80
2022-11-24T01:50:21.878Z,39.40
2022-11-24T01:52:52.732Z,38.40
2022-11-24T01:55:29.277Z,37.30
2022-11-24T01:58:05.144Z,39.00
2022-11-24T02:00:33.313Z,39.20
2022-11-24T02:02:59.779Z,38.70
2022-11-24T02:05:36.262Z,40.60
2022-11-24T02:08:04.653Z,38.90
2022-11-24T02:10:31.281Z,41.30
2022-11-24T02:12:59.069Z,40.70
2022-11-24T02:15:26.262Z,40.20
2022-11-24T02:17:52.824Z,41.90
2022-11-24T02:20:19.391Z,40.70
2022-11-24T02:23:06.882Z,41.60
2022-11-24T02:25:51.483Z,40.50
2022-11-24T02:28:20.828Z,40.90
2022-11-24T02:30:48.122Z,42.70
2022-11-24T02:33:14.693Z,44.00
2022-11-24T02:35:41.433Z,41.30
2022-11-24T02:38:12.973Z,42.60
2022-11-24T02:40:43.085Z,43.70
2022-11-24T02:43:17.520Z,41.70
2022-11-24T02:45:44.010Z,42.30
2022-11-24T02:48:10.493Z,41.50
2022-11-24T02:50:37.261Z,41.10
2022-11-24T02:53:03.763Z,41.30
2022-11-24T02:55:30.279Z,41.10
2022-11-24T02:57:56.848Z,42.10
2022-11-24T03:00:23.374Z,41.50
2022-11-24T03:02:49.924Z,41.00
2022-11-24T03:05:17.440Z,41.90
2022-11-24T03:07:43.966Z,41.10
2022-11-24T03:10:10.455Z,40.40
2022-11-24T03:12:37.096Z,41.30
2022-11-24T03:15:05.532Z,43.90
2022-11-24T03:17:31.985Z,42.60
2022-11-24T03:20:04.544Z,42.20
2022-11-24T03:22:31.941Z,43.70
2022-11-24T03:24:58.676Z,43.10
2022-11-24T03:27:25.646Z,43.50
2022-11-24T03:29:52.074Z,42.80
2022-11-24T03:32:18.662Z,44.10
2022-11-24T03:34:45.128Z,42.70
2022-11-24T03:37:11.566Z,44.10
2022-11-24T03:39:38.152Z,42.30
2022-11-24T03:42:04.836Z,42.60
2022-11-24T03:44:31.501Z,40.50
2022-11-24T03:46:58.201Z,42.80
2022-11-24T03:49:24.757Z,43.30
2022-11-24T03:51:51.182Z,41.20
2022-11-24T03:54:17.720Z,40.20
2022-11-24T03:56:44.226Z,42.00
2022-11-24T03:59:10.636Z,40.10
2022-11-24T04:01:37.098Z,41.40
2022-11-24T04:04:03.859Z,43.40
2022-11-24T04:06:30.302Z,41.20
2022-11-24T04:08:56.812Z,41.30
2022-11-24T04:11:42.064Z,40.10
2022-11-24T04:14:13.371Z,40.80
2022-11-24T04:16:40.924Z,42.00
2022-11-24T04:19:07.429Z,43.60
2022-11-24T04:21:33.901Z,41.40
2022-11-24T04:24:00.341Z,42.20
2022-11-24T04:26:27.890Z,42.80
2022-11-24T04:28:54.488Z,42.10
2022-11-24T04:31:21.184Z,38.40
2022-11-24T04:33:47.765Z,39.90
2022-11-24T04:36:14.221Z,42.90
2022-11-24T04:39:19.451Z,42.20
2022-11-24T04:41:27.279Z,38.60
2022-11-24T04:43:53.775Z,40.00
2022-11-24T04:46:20.272Z,41.60
2022-11-24T04:48:46.867Z,38.90
2022-11-24T04:51:14.674Z,38.40
2022-11-24T04:53:41.504Z,41.00
2022-11-24T04:56:08.644Z,38.70
2022-11-24T04:58:35.558Z,42.30
2022-11-24T05:01:06.173Z,37.50
2022-11-24T05:03:32.705Z,39.70
2022-11-24T05:05:59.564Z,40.90
2022-11-24T05:08:26.456Z,43.20
2022-11-24T05:10:52.853Z,40.20
2022-11-24T05:13:19.362Z,40.30
2022-11-24T05:15:45.989Z,39.30
2022-11-24T05:18:16.981Z,43.40
2022-11-24T05:20:44.148Z,42.00
2022-11-24T05:23:11.335Z,40.00
2022-11-24T05:25:37.931Z,41.50
2022-11-24T05:28:09.318Z,39.80
2022-11-24T05:30:40.192Z,40.90
2022-11-24T05:33:10.883Z,42.40
2022-11-24T05:35:37.400Z,44.40
2022-11-24T05:38:04.161Z,42.00
2022-11-24T05:40:31.556Z,38.50
2022-11-24T05:42:58.919Z,37.70
2022-11-24T05:45:25.548Z,42.10
2022-11-24T05:47:52.625Z,43.90
2022-11-24T05:50:21.545Z,43.20
2022-11-24T05:52:49.181Z,40.50
2022-11-24T05:55:18.716Z,40.20
2022-11-24T05:57:45.328Z,45.30
2022-11-24T06:00:12.629Z,45.70
2022-11-24T06:02:39.366Z,47.20
2022-11-24T06:05:06.672Z,43.10
2022-11-24T06:07:33.244Z,39.70
2022-11-24T06:09:59.781Z,41.50
2022-11-24T06:12:26.277Z,42.70
2022-11-24T06:14:53.050Z,44.90
2022-11-24T06:17:19.427Z,44.80
2022-11-24T06:19:49.403Z,42.60
2022-11-24T06:22:16.970Z,42.90
2022-11-24T06:24:43.363Z,43.00
2022-11-24T06:27:09.812Z,45.00
2022-11-24T06:29:36.310Z,48.20
2022-11-24T06:32:02.909Z,48.00
2022-11-24T06:34:29.551Z,48.70
2022-11-24T06:36:56.385Z,49.90
2022-11-24T06:39:23.008Z,46.80
2022-11-24T06:41:50.212Z,45.40
2022-11-24T06:44:16.794Z,41.20
2022-11-24T06:46:43.395Z,40.90
2022-11-24T06:49:10.188Z,40.50
2022-11-24T06:51:36.739Z,38.20
2022-11-24T06:54:07.773Z,41.80
2022-11-24T06:56:37.992Z,37.80
2022-11-24T06:59:04.769Z,38.90
2022-11-24T07:01:31.721Z,37.90
2022-11-24T07:03:58.982Z,38.40
2022-11-24T07:06:27.739Z,43.90
2022-11-24T07:08:55.374Z,39.30
2022-11-24T07:11:23.714Z,39.90
2022-11-24T07:13:53.843Z,41.30
2022-11-24T07:16:26.079Z,41.80
2022-11-24T07:18:53.611Z,40.50
2022-11-24T07:21:24.895Z,40.50
2022-11-24T07:23:53.875Z,43.40
2022-11-24T07:26:21.582Z,42.70
2022-11-24T07:28:48.907Z,44.10
2022-11-24T07:31:19.143Z,45.00
2022-11-24T07:33:49.914Z,43.60
2022-11-24T07:36:17.281Z,39.70
2022-11-24T07:38:44.317Z,43.30
2022-11-24T07:41:12.957Z,41.70
2022-11-24T07:43:40.229Z,43.90
2022-11-24T07:46:12.397Z,39.70
2022-11-24T07:48:39.614Z,38.20
2022-11-24T07:51:07.645Z,41.60
2022-11-24T07:53:34.831Z,40.00
2022-11-24T07:56:06.429Z,40.70
2022-11-24T07:58:35.992Z,38.10
2022-11-24T08:01:12.664Z,35.10
2022-11-24T08:03:41.984Z,37.60
2022-11-24T08:06:30.522Z,36.70
2022-11-24T08:09:00.731Z,37.90
2022-11-24T08:11:28.039Z,37.40
2022-11-24T08:14:00.195Z,38.50
2022-11-24T08:16:30.116Z,39.40
2022-11-24T08:18:59.623Z,40.00
2022-11-24T08:21:26.418Z,40.50
2022-11-24T08:23:57.305Z,40.50
2022-11-24T08:26:25.478Z,39.30
2022-11-24T08:28:58.342Z,38.90
2022-11-24T08:32:07.409Z,39.40
2022-11-24T08:34:34.306Z,41.90
2022-11-24T08:37:10.976Z,42.80
2022-11-24T08:39:42.817Z,45.60
2022-11-24T08:42:09.914Z,45.10
2022-11-24T08:44:58.696Z,42.70
2022-11-24T08:47:32.357Z,43.20
2022-11-24T08:50:02.886Z,45.00
2022-11-24T08:52:30.234Z,44.00
2022-11-24T08:55:02.930Z,41.30
2022-11-24T08:57:32.944Z,41.80
2022-11-24T09:00:03.937Z,40.30
2022-11-24T09:02:34.736Z,41.50
2022-11-24T09:05:01.918Z,38.30
2022-11-24T09:07:28.584Z,38.40
2022-11-24T09:09:55.805Z,40.00
2022-11-24T09:12:22.690Z,42.90
2022-11-24T09:14:49.349Z,41.30
2022-11-24T09:17:16.416Z,38.20
2022-11-24T09:19:43.459Z,39.30
2022-11-24T09:22:10.224Z,37.90
2022-11-24T09:24:39.658Z,41.60
2022-11-24T09:27:07.780Z,37.90
2022-11-24T09:29:46.391Z,40.00
2022-11-24T09:32:13.063Z,37.90
2022-11-24T09:34:39.770Z,36.90
2022-11-24T09:37:09.059Z,40.40
2022-11-24T09:39:36.362Z,39.70
2022-11-24T09:42:25.912Z,38.70
2022-11-24T09:44:56.305Z,40.60
2022-11-24T09:48:18.628Z,39.50
2022-11-24T09:50:48.929Z,41.20
2022-11-24T09:53:50.537Z,42.10
2022-11-24T09:56:39.711Z,38.30
2022-11-24T09:59:27.857Z,39.50
2022-11-24T10:02:16.888Z,38.80
2022-11-24T10:04:57.380Z,35.30
2022-11-24T10:07:44.493Z,37.50
2022-11-24T10:10:35.523Z,38.10
2022-11-24T10:13:46.226Z,37.80
2022-11-24T10:16:37.293Z,39.80
2022-11-24T10:19:50.682Z,40.80
2022-11-24T10:25:18.672Z,41.90
2022-11-24T10:27:59.453Z,39.60
2022-11-24T10:31:38.722Z,40.50
2022-11-24T10:34:57.007Z,40.90
2022-11-24T10:37:43.749Z,40.90
2022-11-24T10:43:32.884Z,41.20
2022-11-24T10:46:39.062Z,44.00
2022-11-24T10:49:30.336Z,45.50
2022-11-24T10:52:18.590Z,44.80
2022-11-24T10:55:00.952Z,43.70
2022-11-24T10:57:37.850Z,44.10
2022-11-24T11:00:38.372Z,43.50
2022-11-24T11:03:48.853Z,42.20
2022-11-24T11:06:26.247Z,44.30
2022-11-24T11:09:05.553Z,43.90
2022-11-24T11:11:43.894Z,44.20
2022-11-24T11:14:28.789Z,44.50
2022-11-24T11:17:01.960Z,42.30
2022-11-24T11:19:54.109Z,45.10
2022-11-24T11:22:39.683Z,45.40
2022-11-24T11:25:35.146Z,46.40
2022-11-24T11:28:26.680Z,43.10
2022-11-24T11:31:24.010Z,43.50
2022-11-24T11:34:30.008Z,42.50
2022-11-24T11:37:00.952Z,42.10
2022-11-24T11:39:48.601Z,43.40
2022-11-24T11:45:36.847Z,45.10
2022-11-24T11:48:03.497Z,42.90
2022-11-24T11:54:06.365Z,44.60
2022-11-24T11:57:30.558Z,43.70
2022-11-24T12:00:19.674Z,43.40
2022-11-24T12:03:03.828Z,46.70
2022-11-24T12:05:48.068Z,45.00
2022-11-24T12:08:43.988Z,46.90
2022-11-24T12:11:31.265Z,47.10
2022-11-24T12:14:25.643Z,49.60
2022-11-24T12:17:14.464Z,45.00
2022-11-24T12:20:17.717Z,44.20
2022-11-24T12:23:52.233Z,50.40
2022-11-24T12:26:24.884Z,44.60
2022-11-24T12:29:41.273Z,46.70
2022-11-24T12:32:54.447Z,45.50
2022-11-24T12:35:44.623Z,44.50
2022-11-24T12:38:45.386Z,44.90
2022-11-24T12:41:41.714Z,43.10
2022-11-24T12:45:00.632Z,43.30
2022-11-24T12:48:03.463Z,45.50
2022-11-24T12:50:36.500Z,45.40
2022-11-24T12:53:18.099Z,46.90
2022-11-24T12:55:46.272Z,43.10
2022-11-24T12:58:35.843Z,46.40
2022-11-24T13:01:40.675Z,48.40
2022-11-24T13:04:30.481Z,44.50
2022-11-24T13:07:13.843Z,45.30
2022-11-24T13:10:40.468Z,44.40
2022-11-24T13:13:16.526Z,48.20
2022-11-24T13:16:13.205Z,47.10
2022-11-24T13:18:54.264Z,46.10
2022-11-24T13:21:44.407Z,45.70
2022-11-24T13:24:18.450Z,46.90
2022-11-24T13:27:16.282Z,45.30
2022-11-24T13:30:06.794Z,46.30
2022-11-24T13:32:34.211Z,45.90
2022-11-24T13:35:14.425Z,48.70
2022-11-24T13:37:54.243Z,48.60
2022-11-24T13:40:30.903Z,46.50
2022-11-24T13:43:00.735Z,45.70
2022-11-24T13:45:41.255Z,44.80
2022-11-24T13:48:20.945Z,47.10
2022-11-24T13:50:59.968Z,44.90
2022-11-24T13:53:41.910Z,44.60
2022-11-24T13:56:27.905Z,45.50
2022-11-24T13:58:58.233Z,45.00
2022-11-24T14:01:42.631Z,44.70
2022-11-24T14:04:31.434Z,41.30
2022-11-24T14:07:12.162Z,44.80
2022-11-24T14:09:50.546Z,42.50
2022-11-24T14:12:26.144Z,45.30
2022-11-24T14:14:55.878Z,50.10
2022-11-24T14:17:27.670Z,56.20
2022-11-24T14:19:58.258Z,54.90
2022-11-24T14:22:32.297Z,65.50
2022-11-24T14:25:00.725Z,54.70
2022-11-24T14:27:37.697Z,50.80
2022-11-24T14:30:28.496Z,51.50
2022-11-24T14:32:59.809Z,49.60
2022-11-24T14:35:45.628Z,52.50
2022-11-24T14:38:12.479Z,50.70
2022-11-24T14:40:54.556Z,49.90
2022-11-24T14:43:34.526Z,50.80
2022-11-24T14:46:08.664Z,48.50
2022-11-24T14:48:49.212Z,46.80
2022-11-24T14:51:26.690Z,50.00
2022-11-24T14:54:04.487Z,48.40
2022-11-24T14:56:42.353Z,49.00
2022-11-24T14:59:25.485Z,48.00
2022-11-24T15:01:52.509Z,46.00
2022-11-24T15:05:01.417Z,44.10
2022-11-24T15:07:31.645Z,45.60
2022-11-24T15:10:01.518Z,45.70
2022-11-24T15:12:46.224Z,46.90
2022-11-24T15:15:14.172Z,45.90
2022-11-24T15:17:48.407Z,44.60
2022-11-24T15:20:48.440Z,46.80
2022-11-24T15:23:33.021Z,44.00
2022-11-24T15:26:06.574Z,45.70
2022-11-24T15:28:37.352Z,48.90
2022-11-24T15:31:28.681Z,47.50
2022-11-24T15:34:02.737Z,43.60
2022-11-24T15:36:30.175Z,46.80
2022-11-24T15:39:04.300Z,48.10
2022-11-24T15:41:34.741Z,49.30
2022-11-24T15:44:01.899Z,48.90
2022-11-24T15:46:37.212Z,47.90
2022-11-24T15:49:08.054Z,50.90
2022-11-24T15:51:35.977Z,49.60
2022-11-24T15:54:02.674Z,48.40
2022-11-24T15:56:34.616Z,45.50
2022-11-24T15:59:20.419Z,51.20
2022-11-24T16:01:53.141Z,46.10
2022-11-24T16:04:19.715Z,48.10
2022-11-24T16:06:47.370Z,50.20
2022-11-24T16:09:16.219Z,49.00
2022-11-24T16:11:42.990Z,46.20
2022-11-24T16:14:09.489Z,48.60
2022-11-24T16:16:36.185Z,47.10
2022-11-24T16:19:03.360Z,46.20
2022-11-24T16:21:30.184Z,48.80
2022-11-24T16:23:56.865Z,48.30
2022-11-24T16:26:23.360Z,46.60
2022-11-24T16:28:49.957Z,43.30
2022-11-24T16:31:19.081Z,46.30
2022-11-24T16:33:45.725Z,44.80
2022-11-24T16:36:13.342Z,44.90
2022-11-24T16:38:40.046Z,44.80
2022-11-24T16:41:08.301Z,43.30
2022-11-24T16:43:35.078Z,45.20
2022-11-24T16:46:17.048Z,45.40
2022-11-24T16:48:46.168Z,43.80
2022-11-24T16:51:16.329Z,46.30
2022-11-24T16:53:43.507Z,48.00
2022-11-24T16:56:10.893Z,48.70
2022-11-24T16:58:41.447Z,50.00
2022-11-24T17:01:11.311Z,47.00
2022-11-24T17:03:39.261Z,47.90
2022-11-24T17:06:09.779Z,49.80
2022-11-24T17:08:39.131Z,53.70
2022-11-24T17:11:12.278Z,52.20
2022-11-24T17:13:39.962Z,53.10
2022-11-24T17:16:09.950Z,55.90
2022-11-24T17:18:38.326Z,60.30
2022-11-24T17:21:09.686Z,58.30
2022-11-24T17:23:37.486Z,58.40
2022-11-24T17:26:11.209Z,56.10
2022-11-24T17:28:38.275Z,53.80
2022-11-24T17:31:23.067Z,58.80
2022-11-24T17:33:53.223Z,55.40
2022-11-24T17:36:20.802Z,51.10
2022-11-24T17:38:48.937Z,50.40
2022-11-24T17:41:17.006Z,49.10
2022-11-24T17:43:43.911Z,50.90
2022-11-24T17:46:10.839Z,51.10
2022-11-24T17:48:37.467Z,56.30
2022-11-24T17:51:13.732Z,64.90
2022-11-24T17:53:42.223Z,64.50
2022-11-24T17:56:12.868Z,63.90
2022-11-24T17:58:42.841Z,57.60
2022-11-24T18:01:12.111Z,58.40
2022-11-24T18:03:40.463Z,56.20
2022-11-24T18:06:10.837Z,57.70
2022-11-24T18:08:40.433Z,60.70
2022-11-24T18:11:30.437Z,59.30
2022-11-24T18:14:01.900Z,57.60
2022-11-24T18:16:31.558Z,57.20
2022-11-24T18:19:08.238Z,59.60
2022-11-24T18:21:40.851Z,63.00
2022-11-24T18:24:09.866Z,64.70
2022-11-24T18:26:38.671Z,64.60
2022-11-24T18:29:06.198Z,62.10
2022-11-24T18:31:34.717Z,66.10
2022-11-24T18:34:03.859Z,68.40
2022-11-24T18:36:31.184Z,68.60
2022-11-24T18:39:02.991Z,62.10
2022-11-24T18:41:29.577Z,68.90
2022-11-24T18:43:56.117Z,66.10
2022-11-24T18:46:22.916Z,67.20
2022-11-24T18:48:51.369Z,70.20
2022-11-24T18:51:18.028Z,72.40
2022-11-24T18:53:45.665Z,68.80
2022-11-24T18:56:15.805Z,67.90
2022-11-24T18:58:43.089Z,68.20
2022-11-24T19:01:30.541Z,72.10
2022-11-24T19:04:01.385Z,70.50
2022-11-24T19:06:36.917Z,68.20
2022-11-24T19:09:11.091Z,98.60
2022-11-24T19:11:40.274Z,105.10
2022-11-24T19:14:12.852Z,110.10
2022-11-24T19:16:40.804Z,107.90
2022-11-24T19:19:10.012Z,84.40
2022-11-24T19:21:38.851Z,73.30
2022-11-24T19:24:09.495Z,79.10
2022-11-24T19:26:37.389Z,92.80
2022-11-24T19:29:05.686Z,101.10
2022-11-24T19:31:33.760Z,102.50
2022-11-24T19:34:02.316Z,87.90
2022-11-24T19:36:29.610Z,75.50
2022-11-24T19:38:57.596Z,68.10
2022-11-24T19:41:27.937Z,64.50
2022-11-24T19:43:56.056Z,69.50
2022-11-24T19:46:26.552Z,59.70
2022-11-24T19:48:55.464Z,56.40
2022-11-24T19:51:31.803Z,52.90
2022-11-24T19:53:59.690Z,54.40
2022-11-24T19:56:29.314Z,59.80
2022-11-24T19:58:56.864Z,56.20
2022-11-24T20:01:30.348Z,55.40
2022-11-24T20:04:01.941Z,57.30
2022-11-24T20:06:36.147Z,58.20
2022-11-24T20:09:05.530Z,56.90
2022-11-24T20:11:32.111Z,61.30
2022-11-24T20:13:58.599Z,60.60
2022-11-24T20:16:29.223Z,58.20
2022-11-24T20:19:08.805Z,57.50
2022-11-24T20:21:36.982Z,55.50
2022-11-24T20:24:19.310Z,54.10
2022-11-24T20:26:57.591Z,57.80
2022-11-24T20:29:24.303Z,53.90
2022-11-24T20:31:54.399Z,57.90
2022-11-24T20:34:22.082Z,55.40
2022-11-24T20:36:49.062Z,57.80
2022-11-24T20:39:24.618Z,57.00
2022-11-24T20:41:51.959Z,54.50
2022-11-24T20:44:21.387Z,55.10
2022-11-24T20:46:48.618Z,56.10
2022-11-24T20:49:18.552Z,57.40
2022-11-24T20:51:48.499Z,70.50
2022-11-24T20:54:17.443Z,60.80
2022-11-24T20:56:45.772Z,72.90
2022-11-24T20:59:23.593Z,70.40
2022-11-24T21:01:51.456Z,70.00
2022-11-24T21:04:24.673Z,67.90
2022-11-24T21:06:51.461Z,67.90
2022-11-24T21:09:18.667Z,64.20
2022-11-24T21:11:45.400Z,64.70
2022-11-24T21:14:12.161Z,64.50
2022-11-24T21:16:40.735Z,63.50
2022-11-24T21:19:11.707Z,65.80
2022-11-24T21:21:40.439Z,61.00
2022-11-24T21:24:12.588Z,59.70
2022-11-24T21:26:39.975Z,58.50
2022-11-24T21:29:06.836Z,61.50
2022-11-24T21:31:38.416Z,59.00
2022-11-24T21:34:06.048Z,58.20
2022-11-24T21:36:34.348Z,57.30
2022-11-24T21:39:02.558Z,60.50
2022-11-24T21:41:32.630Z,60.40
2022-11-24T21:43:59.210Z,59.30
2022-11-24T21:46:27.762Z,56.00
2022-11-24T21:48:54.209Z,65.40
2022-11-24T21:51:21.277Z,62.30
2022-11-24T21:53:48.418Z,63.80
2022-11-24T21:56:20.801Z,59.80
2022-11-24T22:01:22.749Z,60.40
2022-11-24T22:03:49.593Z,59.40
2022-11-24T22:06:18.810Z,57.40
2022-11-24T22:08:47.030Z,59.00
2022-11-24T22:11:18.921Z,63.10
2022-11-24T22:13:46.519Z,58.30
2022-11-24T22:16:19.838Z,58.80
2022-11-24T22:18:46.777Z,59.60
2022-11-24T22:21:16.183Z,58.10
2022-11-24T22:23:42.893Z,57.30
2022-11-24T22:26:16.497Z,56.30
2022-11-24T22:28:43.928Z,56.90
2022-11-24T22:31:14.281Z,56.90
2022-11-24T22:33:41.475Z,56.00
2022-11-24T22:36:09.762Z,58.50
2022-11-24T22:38:36.530Z,59.40
2022-11-24T22:41:08.911Z,57.80
2022-11-24T22:43:36.810Z,56.70
2022-11-24T22:46:08.775Z,56.70
2022-11-24T22:48:39.300Z,59.50
2022-11-24T22:51:15.667Z,58.30
2022-11-24T22:53:47.936Z,61.50
2022-11-24T22:56:15.204Z,61.20
2022-11-24T22:58:42.555Z,60.70
2022-11-24T23:01:18.590Z,57.00
2022-11-24T23:03:46.149Z,57.00
2022-11-24T23:06:19.785Z,57.90
2022-11-24T23:08:47.157Z,58.30
2022-11-24T23:11:14.761Z,54.10
2022-11-24T23:13:41.629Z,54.00
2022-11-24T23:16:12.729Z,55.00
2022-11-24T23:18:39.869Z,56.30
2022-11-24T23:21:27.344Z,54.70
2022-11-24T23:23:54.509Z,51.70
2022-11-24T23:26:27.770Z,53.80
2022-11-24T23:28:54.459Z,55.00
2022-11-24T23:31:26.564Z,53.20
2022-11-24T23:33:53.417Z,53.90
2022-11-24T23:36:21.098Z,53.30
2022-11-24T23:38:48.176Z,54.30
2022-11-24T23:41:21.523Z,50.80
2022-11-24T23:43:47.969Z,50.60
2022-11-24T23:46:20.975Z,49.50
2022-11-24T23:48:50.832Z,45.90
2022-11-24T23:51:25.676Z,46.60
2022-11-24T23:53:53.213Z,44.30
2022-11-24T23:56:26.414Z,48.30
2022-11-24T23:58:53.029Z,46.40
